KEAT/EAT METAR and TAF weather

Enter ICAO airport designator
Station Type Date Time Source
KEAT METAR 2018/04/20 07:55 UTC NOAA

KEAT 200755Z AUTO 30009KT 10SM CLR 09/01 A3017 RMK AO2 SLP218 T00940006 401830022


Station Type Date Time Source
KEAT Decoded METAR 2018/04/20 07:55 UTC NOAA

WENATCHEE PANGBORN MEMO, WA, United States (KEAT) 47-24N 120-12W 377M
Apr 20, 2018 - 03:55 AM EDT / 2018.04.20 0755 UTC
Wind: from the WNW (300 degrees) at 10 MPH (9 KT):0
Visibility: 10 mile(s):0
Sky conditions: clear
Temperature: 48.9 F (9.4 C)
Dew Point: 33.1 F (0.6 C)
Relative Humidity: 54%
Pressure (altimeter): 30.17 in. Hg (1021 hPa)
ob: KEAT 200755Z AUTO 30009KT 10SM CLR 09/01 A3017 RMK AO2 SLP218 T00940006 401830022
cycle: 8

Station Type Date Time Source
KEAT TAF 2018/04/20 06:30 UTC NOAA

TAF KEAT 200528Z 2006/2106 32008KT P6SM FEW200
FM202100 15006KT P6SM SCT100 BKN200
FM210300 29007KT P6SM BKN100 OVC200


Example: see airport list